Terminal Aerodrome Forecast
Issued by NWS Pueblo, CO

Home | Current Version | Previous Version | Text Only | Print | Product List | Glossary On
Versions: 1 2 3 4 5 6 7 8 9 10 11 12 13 14 15 16 17 18 19 20 21 22 23 24 25 26 27 28 29 30 31 32 33 34 35 36 37 38
000
FTUS45 KPUB 270527
TAFALS
TAF
KALS 270527Z 2706/2806 33008KT P6SM SCT040 OVC080
      TEMPO 2708/2712 5SM BR BKN025
     FM271400 VRB06KT P6SM SCT040 BKN080
     FM271800 04010KT P6SM VCSH SCT050 BKN100
     FM280200 08009KT P6SM BKN100=

USA.gov is the U.S. government's official web portal to all federal, state and local government web resources and services.